createdAt,value
2018-06-27T00:01:08.129Z,4.87
2018-06-27T00:03:37.155Z,4.97
2018-06-27T00:06:05.418Z,5.33
2018-06-27T00:08:33.660Z,5.23
2018-06-27T00:11:01.936Z,4.93
2018-06-27T00:13:30.462Z,5.53
2018-06-27T00:15:58.733Z,5.83
2018-06-27T00:18:26.997Z,5.47
2018-06-27T00:20:55.235Z,5.93
2018-06-27T00:23:23.515Z,5.47
2018-06-27T00:25:51.766Z,5.67
2018-06-27T00:28:20.019Z,5.50
2018-06-27T00:30:48.295Z,5.67
2018-06-27T00:33:16.538Z,6.03
2018-06-27T00:35:44.799Z,5.30
2018-06-27T00:38:13.843Z,5.93
2018-06-27T00:40:42.119Z,5.93
2018-06-27T00:43:10.390Z,5.90
2018-06-27T00:45:38.643Z,5.40
2018-06-27T00:48:06.919Z,5.83
2018-06-27T00:50:35.157Z,5.80
2018-06-27T00:53:03.425Z,5.47
2018-06-27T00:55:31.747Z,5.30
2018-06-27T00:58:00.012Z,5.63
2018-06-27T01:00:28.277Z,6.60
2018-06-27T01:02:57.369Z,5.97
2018-06-27T01:05:26.402Z,5.63
2018-06-27T01:07:54.681Z,5.77
2018-06-27T01:10:22.922Z,5.90
2018-06-27T01:12:51.164Z,5.67
2018-06-27T01:15:19.467Z,5.80
2018-06-27T01:17:47.701Z,5.13
2018-06-27T01:20:15.959Z,5.43
2018-06-27T01:22:44.213Z,5.00
2018-06-27T01:25:12.479Z,5.77
2018-06-27T01:27:40.720Z,5.47
2018-06-27T01:30:08.994Z,5.57
2018-06-27T01:32:37.262Z,5.83
2018-06-27T01:35:05.524Z,5.97
2018-06-27T01:37:33.761Z,5.73
2018-06-27T01:40:02.096Z,5.77
2018-06-27T01:42:30.303Z,6.03
2018-06-27T01:44:58.562Z,5.90
2018-06-27T01:47:27.579Z,6.10
2018-06-27T01:49:55.858Z,5.87
2018-06-27T01:52:24.303Z,5.87
2018-06-27T01:54:53.321Z,5.03
2018-06-27T01:57:21.595Z,5.47
2018-06-27T01:59:49.835Z,5.03
2018-06-27T02:02:18.095Z,6.27
2018-06-27T02:04:46.360Z,5.53
2018-06-27T02:07:14.619Z,5.57
2018-06-27T02:09:42.868Z,5.87
2018-06-27T02:12:11.122Z,5.47
2018-06-27T02:14:40.137Z,5.33
2018-06-27T02:17:08.416Z,5.20
2018-06-27T02:19:36.666Z,5.00
2018-06-27T02:22:05.679Z,4.90
2018-06-27T02:24:33.939Z,4.30
2018-06-27T02:27:02.952Z,4.40
2018-06-27T02:29:31.218Z,4.80
2018-06-27T02:32:02.006Z,4.73
2018-06-27T02:34:30.268Z,4.90
2018-06-27T02:36:58.520Z,5.30
2018-06-27T02:39:26.777Z,5.10
2018-06-27T02:41:55.038Z,5.50
2018-06-27T02:44:23.308Z,5.87
2018-06-27T02:46:52.320Z,5.23
2018-06-27T02:49:20.671Z,4.93
2018-06-27T02:51:48.908Z,5.30
2018-06-27T02:54:17.174Z,4.90
2018-06-27T02:56:45.409Z,5.03
2018-06-27T02:59:13.683Z,5.23
2018-06-27T03:01:42.699Z,5.70
2018-06-27T03:04:10.979Z,5.70
2018-06-27T03:06:39.236Z,6.00
2018-06-27T03:09:07.477Z,6.00
2018-06-27T03:11:35.759Z,5.53
2018-06-27T03:14:04.004Z,5.77
2018-06-27T03:16:32.253Z,5.90
2018-06-27T03:19:00.507Z,6.27
2018-06-27T03:21:28.769Z,4.57
2018-06-27T03:23:57.830Z,4.57
2018-06-27T03:26:26.111Z,5.77
2018-06-27T03:28:54.351Z,5.40
2018-06-27T03:31:23.223Z,4.70
2018-06-27T03:33:51.570Z,4.90
2018-06-27T03:36:19.926Z,4.97
2018-06-27T03:38:48.178Z,4.77
2018-06-27T03:41:16.492Z,4.60
2018-06-27T03:43:45.581Z,4.10
2018-06-27T03:46:13.782Z,4.43
2018-06-27T03:48:42.045Z,5.30
2018-06-27T03:51:11.071Z,5.07
2018-06-27T03:53:39.334Z,5.70
2018-06-27T03:56:07.627Z,5.63
2018-06-27T04:01:11.224Z,5.83
2018-06-27T04:03:39.520Z,4.80
2018-06-27T04:06:07.758Z,4.23
2018-06-27T04:08:36.786Z,5.67
2018-06-27T04:11:05.045Z,5.40
2018-06-27T04:13:33.398Z,4.73
2018-06-27T04:16:02.331Z,4.83
2018-06-27T04:18:30.590Z,4.23
2018-06-27T04:20:58.843Z,4.00
2018-06-27T04:23:27.851Z,4.40
2018-06-27T04:25:56.134Z,4.40
2018-06-27T04:28:24.398Z,5.50
2018-06-27T04:30:53.424Z,5.87
2018-06-27T04:33:21.749Z,5.23
2018-06-27T04:35:50.772Z,5.53
2018-06-27T04:38:19.413Z,5.20
2018-06-27T04:40:47.658Z,5.23
2018-06-27T04:43:16.014Z,5.50
2018-06-27T04:45:44.183Z,5.60
2018-06-27T04:48:12.465Z,6.57
2018-06-27T04:50:40.767Z,6.93
2018-06-27T04:53:09.018Z,6.97
2018-06-27T04:55:37.268Z,6.40
2018-06-27T04:58:05.532Z,6.90
2018-06-27T05:00:34.562Z,6.40
2018-06-27T05:03:02.815Z,7.87
2018-06-27T05:05:31.090Z,7.23
2018-06-27T05:07:59.389Z,7.67
2018-06-27T05:10:27.658Z,8.47
2018-06-27T05:12:55.903Z,9.07
2018-06-27T05:15:24.951Z,8.97
2018-06-27T05:17:53.214Z,8.43
2018-06-27T05:20:21.482Z,8.40
2018-06-27T05:22:49.756Z,8.40
2018-06-27T05:25:18.015Z,8.67
2018-06-27T05:27:46.265Z,8.30
2018-06-27T05:30:15.299Z,8.50
2018-06-27T05:32:43.550Z,8.60
2018-06-27T05:35:11.897Z,8.67
2018-06-27T05:37:40.111Z,8.23
2018-06-27T05:40:08.383Z,8.57
2018-06-27T05:42:36.630Z,8.10
2018-06-27T05:45:05.667Z,8.10
2018-06-27T05:47:33.936Z,7.40
2018-06-27T05:50:02.215Z,7.37
2018-06-27T05:52:30.465Z,7.70
2018-06-27T05:54:58.743Z,7.70
2018-06-27T05:57:26.991Z,7.53
2018-06-27T05:59:56.019Z,6.80
2018-06-27T06:02:24.279Z,7.27
2018-06-27T06:04:53.303Z,7.10
2018-06-27T06:07:21.581Z,7.07
2018-06-27T06:09:49.858Z,7.00
2018-06-27T06:12:18.112Z,6.80
2018-06-27T06:14:46.386Z,6.30
2018-06-27T06:17:14.659Z,7.10
2018-06-27T06:22:17.491Z,7.47
2018-06-27T06:24:45.753Z,7.20
2018-06-27T06:27:14.028Z,6.67
2018-06-27T06:29:42.262Z,6.87
2018-06-27T06:32:11.328Z,6.33
2018-06-27T06:34:39.547Z,6.17
2018-06-27T06:37:07.818Z,5.53
2018-06-27T06:39:36.082Z,5.40
2018-06-27T06:42:04.346Z,5.20
2018-06-27T06:44:33.418Z,5.33
2018-06-27T06:47:01.680Z,5.63
2018-06-27T06:49:29.930Z,5.80
2018-06-27T06:51:58.191Z,5.80
2018-06-27T06:54:26.668Z,5.43
2018-06-27T06:56:54.943Z,5.07
2018-06-27T06:59:23.230Z,4.57
2018-06-27T07:01:51.500Z,4.63
2018-06-27T07:04:19.770Z,4.93
2018-06-27T07:06:48.010Z,4.20
2018-06-27T07:09:17.087Z,4.27
2018-06-27T07:11:45.357Z,4.20
2018-06-27T07:14:13.601Z,4.43
2018-06-27T07:16:41.872Z,4.10
2018-06-27T07:19:10.123Z,3.73
2018-06-27T07:21:39.158Z,3.73
2018-06-27T07:24:07.473Z,3.40
2018-06-27T07:26:35.711Z,3.43
2018-06-27T07:29:03.956Z,3.97
2018-06-27T07:31:32.199Z,3.77
2018-06-27T07:34:01.225Z,3.50
2018-06-27T07:36:29.474Z,3.40
2018-06-27T07:38:58.515Z,3.80
2018-06-27T07:41:26.796Z,3.60
2018-06-27T07:43:55.045Z,3.50
2018-06-27T07:46:23.316Z,3.20
2018-06-27T07:48:51.573Z,3.40
2018-06-27T07:51:19.871Z,3.20
2018-06-27T07:53:48.129Z,3.63
2018-06-27T07:56:16.374Z,3.07
2018-06-27T07:58:44.634Z,3.37
2018-06-27T08:01:12.913Z,2.97
2018-06-27T08:03:41.913Z,3.57
2018-06-27T08:06:10.264Z,3.33
2018-06-27T08:08:38.507Z,3.60
2018-06-27T08:11:06.774Z,3.33
2018-06-27T08:13:35.788Z,3.60
2018-06-27T08:16:04.049Z,3.40
2018-06-27T08:18:32.289Z,3.97
2018-06-27T08:21:00.625Z,3.40
2018-06-27T08:23:28.858Z,3.93
2018-06-27T08:25:57.888Z,4.00
2018-06-27T08:28:26.164Z,4.10
2018-06-27T08:30:54.411Z,3.97
2018-06-27T08:33:22.678Z,3.37
2018-06-27T08:35:51.694Z,3.63
2018-06-27T08:38:19.964Z,3.70
2018-06-27T08:40:48.204Z,3.90
2018-06-27T08:43:17.233Z,3.60
2018-06-27T08:45:45.877Z,4.50
2018-06-27T08:48:14.138Z,3.57
2018-06-27T08:50:42.377Z,3.43
2018-06-27T08:53:10.669Z,3.90
2018-06-27T08:55:38.901Z,4.30
2018-06-27T08:58:07.911Z,4.07
2018-06-27T09:00:36.190Z,4.10
2018-06-27T09:03:04.435Z,4.00
2018-06-27T09:05:33.459Z,4.07
2018-06-27T09:08:02.032Z,3.93
2018-06-27T09:10:30.272Z,4.33
2018-06-27T09:12:58.615Z,3.83
2018-06-27T09:15:26.853Z,4.23
2018-06-27T09:17:55.106Z,4.37
2018-06-27T09:20:24.150Z,3.97
2018-06-27T09:22:52.415Z,3.90
2018-06-27T09:25:20.676Z,4.20
2018-06-27T09:27:48.947Z,4.33
2018-06-27T09:30:17.180Z,3.90
2018-06-27T09:32:45.434Z,4.27
2018-06-27T09:35:13.697Z,3.90
2018-06-27T09:37:41.956Z,3.47
2018-06-27T09:40:10.199Z,4.00
2018-06-27T09:42:39.248Z,4.00
2018-06-27T09:45:07.500Z,3.80
2018-06-27T09:47:35.751Z,4.13
2018-06-27T09:50:04.767Z,3.53
2018-06-27T09:52:33.038Z,3.60
2018-06-27T09:55:01.278Z,3.73
2018-06-27T09:57:30.310Z,3.33
2018-06-27T09:59:58.587Z,4.10
2018-06-27T10:02:26.848Z,3.60
2018-06-27T10:04:55.130Z,3.30
2018-06-27T10:07:23.444Z,3.37
2018-06-27T10:09:51.718Z,3.47
2018-06-27T10:12:19.947Z,3.30
2018-06-27T10:14:48.192Z,3.17
2018-06-27T10:17:17.252Z,2.93
2018-06-27T10:19:45.483Z,2.93
2018-06-27T10:22:13.771Z,2.90
2018-06-27T10:24:42.743Z,3.00
2018-06-27T10:27:11.782Z,3.00
2018-06-27T10:29:40.032Z,3.13
2018-06-27T10:32:08.270Z,3.00
2018-06-27T10:34:36.525Z,3.20
2018-06-27T10:37:04.810Z,3.17
2018-06-27T10:39:33.055Z,3.10
2018-06-27T10:42:01.318Z,3.33
2018-06-27T10:44:29.611Z,2.93
2018-06-27T10:46:57.833Z,3.73
2018-06-27T10:49:26.858Z,2.80
2018-06-27T10:51:55.840Z,3.47
2018-06-27T10:54:24.116Z,3.30
2018-06-27T10:56:52.350Z,3.17
2018-06-27T10:59:20.628Z,2.63
2018-06-27T11:01:48.864Z,2.80
2018-06-27T11:04:17.139Z,2.60
2018-06-27T11:06:45.386Z,3.10
2018-06-27T11:09:13.634Z,3.00
2018-06-27T11:11:42.691Z,3.00
2018-06-27T11:14:11.019Z,3.40
2018-06-27T11:16:39.993Z,3.27
2018-06-27T11:19:09.026Z,3.20
2018-06-27T11:21:37.298Z,3.10
2018-06-27T11:24:05.583Z,3.30
2018-06-27T11:26:34.637Z,3.30
2018-06-27T11:29:03.670Z,3.20
2018-06-27T11:31:31.992Z,2.70
2018-06-27T11:34:00.231Z,2.37
2018-06-27T11:36:28.488Z,2.30
2018-06-27T11:38:56.734Z,2.37
2018-06-27T11:41:25.815Z,2.30
2018-06-27T11:43:54.067Z,2.30
2018-06-27T11:46:22.352Z,2.60
2018-06-27T11:48:50.593Z,2.77
2018-06-27T11:51:18.857Z,3.00
2018-06-27T11:53:47.116Z,2.67
2018-06-27T11:56:15.386Z,3.00
2018-06-27T11:58:43.637Z,2.60
2018-06-27T12:01:11.882Z,2.57
2018-06-27T12:03:40.152Z,2.10
2018-06-27T12:06:09.168Z,2.30
2018-06-27T12:08:37.406Z,2.10
2018-06-27T12:11:05.671Z,2.00
2018-06-27T12:13:33.924Z,1.83
2018-06-27T12:16:02.177Z,1.80
2018-06-27T12:18:30.425Z,1.40
2018-06-27T12:20:58.852Z,1.87
2018-06-27T12:23:27.034Z,1.50
2018-06-27T12:25:55.307Z,1.40
2018-06-27T12:28:23.553Z,1.50
2018-06-27T12:30:52.011Z,1.20
2018-06-27T12:33:20.260Z,1.67
2018-06-27T12:35:48.527Z,1.40
2018-06-27T12:38:16.773Z,1.40
2018-06-27T12:40:45.802Z,1.33
2018-06-27T12:43:14.054Z,1.60
2018-06-27T12:45:42.315Z,1.50
2018-06-27T12:48:11.347Z,1.53
2018-06-27T12:50:39.599Z,1.50
2018-06-27T12:53:07.867Z,1.40
2018-06-27T12:55:36.107Z,1.43
2018-06-27T12:58:04.380Z,1.67
2018-06-27T13:00:32.659Z,1.30
2018-06-27T13:03:00.860Z,1.30
2018-06-27T13:05:29.883Z,1.23
2018-06-27T13:07:58.150Z,1.60
2018-06-27T13:10:26.386Z,1.30
2018-06-27T13:12:55.419Z,1.57
2018-06-27T13:15:23.669Z,1.10
2018-06-27T13:17:52.676Z,1.50
2018-06-27T13:20:20.930Z,1.20
2018-06-27T13:22:49.947Z,1.40
2018-06-27T13:25:18.234Z,1.23
2018-06-27T13:27:46.467Z,1.40
2018-06-27T13:30:15.578Z,1.30
2018-06-27T13:32:43.810Z,1.20
2018-06-27T13:35:12.057Z,1.40
2018-06-27T13:37:40.306Z,1.07
2018-06-27T13:40:08.568Z,1.20
2018-06-27T13:42:37.603Z,1.37
2018-06-27T13:45:05.865Z,1.40
2018-06-27T13:47:34.124Z,1.50
2018-06-27T13:50:02.454Z,1.40
2018-06-27T13:52:31.414Z,1.60
2018-06-27T13:54:59.667Z,1.33
2018-06-27T13:57:27.954Z,1.40
2018-06-27T13:59:56.604Z,1.30
2018-06-27T14:02:24.851Z,1.30
2018-06-27T14:04:53.106Z,1.40
2018-06-27T14:07:22.124Z,1.50
2018-06-27T14:09:50.483Z,1.30
2018-06-27T14:12:18.729Z,1.30
2018-06-27T14:14:46.977Z,1.30
2018-06-27T14:17:16.018Z,1.50
2018-06-27T14:19:44.263Z,1.63
2018-06-27T14:22:12.535Z,1.60
2018-06-27T14:24:41.556Z,1.40
2018-06-27T14:27:09.829Z,1.63
2018-06-27T14:29:38.084Z,1.50
2018-06-27T14:32:06.349Z,1.43
2018-06-27T14:34:34.795Z,1.50
2018-06-27T14:37:03.055Z,1.50
2018-06-27T14:39:32.064Z,1.60
2018-06-27T14:42:00.310Z,1.60
2018-06-27T14:44:28.578Z,1.40
2018-06-27T14:46:56.937Z,1.47
2018-06-27T14:49:25.246Z,1.40
2018-06-27T14:51:54.178Z,1.53
2018-06-27T14:54:23.263Z,1.50
2018-06-27T14:56:51.502Z,1.33
2018-06-27T14:59:19.799Z,1.40
2018-06-27T15:01:48.815Z,1.20
2018-06-27T15:04:17.856Z,1.40
2018-06-27T15:06:46.123Z,1.50
2018-06-27T15:09:14.376Z,1.40
2018-06-27T15:11:42.614Z,1.20
2018-06-27T15:14:10.888Z,1.20
2018-06-27T15:16:39.154Z,1.23
2018-06-27T15:19:07.419Z,1.17
2018-06-27T15:21:35.672Z,1.20
2018-06-27T15:24:03.919Z,1.10
2018-06-27T15:26:32.171Z,1.17
2018-06-27T15:29:01.203Z,1.20
2018-06-27T15:31:29.486Z,1.30
2018-06-27T15:33:57.861Z,1.30
2018-06-27T15:36:26.135Z,1.20
2018-06-27T15:38:54.377Z,1.20
2018-06-27T15:41:23.401Z,1.10
2018-06-27T15:43:51.652Z,1.20
2018-06-27T15:46:20.726Z,1.10
2018-06-27T15:48:49.237Z,1.10
2018-06-27T15:51:17.463Z,1.07
2018-06-27T15:53:45.710Z,1.07
2018-06-27T15:56:13.958Z,1.10
2018-06-27T15:58:42.201Z,0.90
2018-06-27T16:01:11.209Z,1.10
2018-06-27T16:03:40.230Z,1.20
2018-06-27T16:06:08.464Z,1.00
2018-06-27T16:08:37.474Z,1.17
2018-06-27T16:11:05.769Z,1.30
2018-06-27T16:13:34.774Z,1.00
2018-06-27T16:16:03.029Z,1.17
2018-06-27T16:18:31.290Z,1.20
2018-06-27T16:21:00.452Z,1.00
2018-06-27T16:23:28.696Z,1.20
2018-06-27T16:25:56.944Z,1.30
2018-06-27T16:28:25.197Z,1.23
2018-06-27T16:30:54.210Z,1.27
2018-06-27T16:33:22.791Z,1.20
2018-06-27T16:35:51.093Z,1.07
2018-06-27T16:38:19.320Z,1.20
2018-06-27T16:40:47.581Z,1.40
2018-06-27T16:43:16.074Z,1.20
2018-06-27T16:45:44.295Z,1.03
2018-06-27T16:48:12.537Z,1.13
2018-06-27T16:50:41.664Z,1.20
2018-06-27T16:53:09.891Z,1.10
2018-06-27T16:55:38.170Z,1.10
2018-06-27T16:58:07.188Z,1.10
2018-06-27T17:00:36.212Z,1.00
2018-06-27T17:03:04.455Z,1.00
2018-06-27T17:05:32.753Z,1.00
2018-06-27T17:08:01.003Z,0.90
2018-06-27T17:10:29.292Z,1.00
2018-06-27T17:12:57.579Z,1.00
2018-06-27T17:15:26.724Z,0.90
2018-06-27T17:17:54.966Z,1.10
2018-06-27T17:20:23.216Z,1.10
2018-06-27T17:22:51.539Z,1.00
2018-06-27T17:25:19.742Z,1.10
2018-06-27T17:27:48.171Z,1.00
2018-06-27T17:30:16.465Z,1.10
2018-06-27T17:32:44.704Z,1.10
2018-06-27T17:35:12.984Z,1.17
2018-06-27T17:37:41.235Z,0.90
2018-06-27T17:40:09.490Z,1.23
2018-06-27T17:42:38.731Z,1.03
2018-06-27T17:45:07.146Z,1.20
2018-06-27T17:47:35.408Z,1.20
2018-06-27T17:50:03.671Z,1.27
2018-06-27T17:52:31.941Z,1.00
2018-06-27T17:55:00.380Z,1.30
2018-06-27T17:57:28.623Z,1.20
2018-06-27T17:59:56.876Z,1.30
2018-06-27T18:02:25.140Z,1.00
2018-06-27T18:04:53.401Z,1.20
2018-06-27T18:07:21.655Z,1.30
2018-06-27T18:09:49.899Z,1.60
2018-06-27T18:12:18.180Z,1.40
2018-06-27T18:14:46.422Z,1.27
2018-06-27T18:17:14.676Z,1.10
2018-06-27T18:19:42.933Z,1.40
2018-06-27T18:22:11.182Z,1.30
2018-06-27T18:24:39.450Z,1.30
2018-06-27T18:27:07.715Z,1.20
2018-06-27T18:29:35.992Z,1.40
2018-06-27T18:32:04.249Z,1.30
2018-06-27T18:34:32.524Z,1.33
2018-06-27T18:37:00.788Z,1.40
2018-06-27T18:39:29.070Z,1.73
2018-06-27T18:41:57.335Z,1.50
2018-06-27T18:44:25.595Z,1.33
2018-06-27T18:46:53.835Z,1.43
2018-06-27T18:49:22.863Z,1.57
2018-06-27T18:51:51.114Z,1.50
2018-06-27T18:54:20.136Z,1.47
2018-06-27T18:56:48.368Z,1.67
2018-06-27T18:59:17.408Z,1.83
2018-06-27T19:01:45.657Z,1.40
2018-06-27T19:04:13.906Z,1.53
2018-06-27T19:06:42.162Z,1.60
2018-06-27T19:09:10.410Z,1.47
2018-06-27T19:11:38.682Z,1.60
2018-06-27T19:14:06.921Z,1.80
2018-06-27T19:16:35.293Z,1.77
2018-06-27T19:19:04.327Z,2.17
2018-06-27T19:21:32.567Z,1.97
2018-06-27T19:24:01.584Z,2.10
2018-06-27T19:26:29.843Z,2.13
2018-06-27T19:28:58.098Z,1.67
2018-06-27T19:31:27.126Z,1.60
2018-06-27T19:33:55.390Z,1.60
2018-06-27T19:36:23.637Z,1.80
2018-06-27T19:38:52.821Z,1.90
2018-06-27T19:41:21.226Z,1.80
2018-06-27T19:43:49.347Z,1.50
2018-06-27T19:46:17.621Z,1.97
2018-06-27T19:48:45.881Z,1.90
2018-06-27T19:51:14.191Z,1.80
2018-06-27T19:53:42.385Z,1.50
2018-06-27T19:56:11.410Z,1.77
2018-06-27T19:58:39.649Z,1.80
2018-06-27T20:01:08.684Z,1.70
2018-06-27T20:03:36.938Z,1.70
2018-06-27T20:06:05.179Z,1.80
2018-06-27T20:08:33.439Z,1.83
2018-06-27T20:11:01.698Z,1.80
2018-06-27T20:13:29.964Z,1.70
2018-06-27T20:15:58.253Z,1.70
2018-06-27T20:18:26.469Z,1.80
2018-06-27T20:20:55.520Z,1.60
2018-06-27T20:23:23.798Z,1.93
2018-06-27T20:25:52.049Z,1.70
2018-06-27T20:28:20.315Z,1.77
2018-06-27T20:30:48.586Z,1.83
2018-06-27T20:33:16.844Z,1.70
2018-06-27T20:35:45.848Z,1.80
2018-06-27T20:38:14.112Z,1.80
2018-06-27T20:40:43.130Z,1.90
2018-06-27T20:43:11.395Z,1.67
2018-06-27T20:45:39.645Z,1.50
2018-06-27T20:48:08.775Z,1.57
2018-06-27T20:50:37.012Z,1.60
2018-06-27T20:53:06.028Z,1.47
2018-06-27T20:55:34.313Z,1.77
2018-06-27T20:58:03.310Z,1.43
2018-06-27T21:00:31.586Z,1.77
2018-06-27T21:02:59.814Z,1.53
2018-06-27T21:05:28.894Z,1.67
2018-06-27T21:07:57.188Z,1.90
2018-06-27T21:10:25.386Z,1.53
2018-06-27T21:12:53.654Z,1.40
2018-06-27T21:15:22.688Z,1.30
2018-06-27T21:17:51.929Z,1.40
2018-06-27T21:20:20.306Z,1.33
2018-06-27T21:22:48.527Z,1.73
2018-06-27T21:25:16.820Z,1.60
2018-06-27T21:27:45.085Z,1.67
2018-06-27T21:30:13.449Z,1.87
2018-06-27T21:32:41.680Z,1.40
2018-06-27T21:35:10.701Z,1.30
2018-06-27T21:37:38.962Z,1.30
2018-06-27T21:40:07.984Z,1.30
2018-06-27T21:42:36.229Z,1.30
2018-06-27T21:45:05.400Z,1.43
2018-06-27T21:47:33.666Z,1.37
2018-06-27T21:50:01.904Z,1.30
2018-06-27T21:52:30.163Z,1.27
2018-06-27T21:54:58.396Z,1.40
2018-06-27T21:57:26.667Z,1.30
2018-06-27T21:59:54.915Z,1.20
2018-06-27T22:02:23.168Z,1.63
2018-06-27T22:04:51.414Z,1.40
2018-06-27T22:07:20.521Z,1.40
2018-06-27T22:09:49.539Z,1.10
2018-06-27T22:12:17.774Z,1.30
2018-06-27T22:14:46.826Z,1.50
2018-06-27T22:17:15.214Z,1.40
2018-06-27T22:19:43.429Z,1.47
2018-06-27T22:22:12.443Z,1.50
2018-06-27T22:24:40.718Z,1.40
2018-06-27T22:27:08.962Z,1.40
2018-06-27T22:29:37.994Z,1.53
2018-06-27T22:32:06.248Z,1.20
2018-06-27T22:34:34.496Z,1.20
2018-06-27T22:37:02.741Z,1.50
2018-06-27T22:39:30.995Z,1.33
2018-06-27T22:41:59.240Z,1.53
2018-06-27T22:44:28.271Z,1.47
2018-06-27T22:46:56.516Z,1.10
2018-06-27T22:49:24.936Z,1.40
2018-06-27T22:51:53.190Z,1.53
2018-06-27T22:54:21.424Z,1.50
2018-06-27T22:56:50.468Z,1.37
2018-06-27T22:59:18.716Z,1.60
2018-06-27T23:01:46.991Z,1.43
2018-06-27T23:04:15.232Z,1.43
2018-06-27T23:06:43.473Z,1.43
2018-06-27T23:09:11.725Z,1.60
2018-06-27T23:11:39.964Z,1.40
2018-06-27T23:14:09.086Z,1.30
2018-06-27T23:16:37.317Z,1.60
2018-06-27T23:19:05.565Z,1.47
2018-06-27T23:21:33.837Z,1.50
2018-06-27T23:24:02.089Z,1.37
2018-06-27T23:26:30.353Z,1.60
2018-06-27T23:28:58.592Z,1.50
2018-06-27T23:31:26.837Z,1.47
2018-06-27T23:33:55.090Z,1.50
2018-06-27T23:36:23.348Z,1.30
2018-06-27T23:38:52.385Z,1.60
2018-06-27T23:41:20.795Z,1.60
2018-06-27T23:43:49.039Z,1.60
2018-06-27T23:46:17.289Z,1.60
2018-06-27T23:48:45.559Z,1.67
2018-06-27T23:51:13.818Z,1.50
2018-06-27T23:53:42.846Z,1.50
2018-06-27T23:56:11.139Z,1.50
2018-06-27T23:58:39.418Z,1.60
